NORTHERN QUEENS  -  Heat Advisory Heat Advisory     Air Quality Alert Air Quality Alert        SOUTHERN QUEENS  -  Heat Advisory Heat Advisory     Air Quality Alert Air Quality Alert      

Active alerts

Northern Queens
  Details for Northern Queens Heat Advisory  +1 additional alert
Southern Queens
  Details for Southern Queens Heat Advisory  +1 additional alert


WXM80 ListenWXM80 Stop

You find our weather info also at:

UK Metoffice

WeatherCloud

Weather Underground

Northeastern Weather Network

AWEKAS

Citizen Weather Observer Program (CWOP)

HAMweather, WeatherForYou, PWS Weather


Weather Underground History page Text

Daily Summary for June 7, 2017 Units:  Both    English   Metric
« Previous Day
Next Day »
Daily Weekly Monthly Yearly Custom
  High: Low: Average:
Temperature: 73.8 °F /  23.2 °C 52.1 °F /  11.2 °C 61.3 °F /  16.3 °C
Dew Point: 58.3 °F /  14.6 °C 49.1 °F /  9.5 °C 52.4 °F /  11.3 °C
Humidity: 92 % 46 % 74 %
Wind Speed: 7.4 mph /  11.9 km/h - 2.1 mph /  3.4 km/h
Wind Gust: 13.0 mph /  20.9 km/h - -
Wind:- - SE
Pressure: 29.99 in /  1015.5 hPa 29.89 in /  1012.1 hPa -
Precipitation: 0.00 in /  0 mm    
Historical Graphs
 
 
Tabular Data for June 7, 2017
Time Temperature Dew Point Pressure Wind Wind Speed Wind Gust Humidity Rainfall Rate (Hourly)
00:03 52.4 °F /  11.3 °C 49.3 °F /  9.6 °C 29.89 in /  1012.1 hPa ENE 4.0 mph /  6.4 km/h 5.0 mph /  8 km/h 89 % 0.00 in /  0 mm
00:13 52.5 °F /  11.4 °C 49.4 °F /  9.7 °C 29.90 in /  1012.4 hPa ENE 3.7 mph /  6 km/h 6.9 mph /  11.1 km/h 89 % 0.00 in /  0 mm
00:15 52.5 °F /  11.4 °C 49.4 °F /  9.7 °C 29.90 in /  1012.4 hPa East 5.8 mph /  9.3 km/h 11.0 mph /  17.7 km/h 89 % 0.00 in /  0 mm
00:20 52.6 °F /  11.4 °C 49.4 °F /  9.7 °C 29.89 in /  1012.1 hPa ENE 4.4 mph /  7.1 km/h 8.1 mph /  13 km/h 89 % 0.00 in /  0 mm
00:25 52.7 °F /  11.5 °C 49.2 °F /  9.6 °C 29.89 in /  1012.1 hPa East 3.5 mph /  5.6 km/h 10.4 mph /  16.7 km/h 88 % 0.00 in /  0 mm
00:30 52.7 °F /  11.5 °C 49.5 °F /  9.7 °C 29.89 in /  1012.1 hPa ENE 6.0 mph /  9.7 km/h 7.0 mph /  11.3 km/h 89 % 0.00 in /  0 mm
00:36 52.8 °F /  11.6 °C 49.6 °F /  9.8 °C 29.89 in /  1012.1 hPa ENE 5.0 mph /  8 km/h 12.0 mph /  19.3 km/h 89 % 0.00 in /  0 mm
00:41 52.8 °F /  11.6 °C 49.6 °F /  9.8 °C 29.89 in /  1012.1 hPa ENE 6.0 mph /  9.7 km/h 10.0 mph /  16.1 km/h 89 % 0.00 in /  0 mm
00:46 52.7 °F /  11.5 °C 49.6 °F /  9.8 °C 29.89 in /  1012.1 hPa ENE 5.0 mph /  8 km/h 10.0 mph /  16.1 km/h 89 % 0.00 in /  0 mm
00:51 52.7 °F /  11.5 °C 49.6 °F /  9.8 °C 29.89 in /  1012.1 hPa ENE 3.0 mph /  4.8 km/h 10.0 mph /  16.1 km/h 89 % 0.00 in /  0 mm
00:56 52.7 °F /  11.5 °C 49.5 °F /  9.7 °C 29.89 in /  1012.1 hPa ENE 6.7 mph /  10.8 km/h 10.4 mph /  16.7 km/h 89 % 0.00 in /  0 mm
01:01 52.7 °F /  11.5 °C 49.5 °F /  9.7 °C 29.90 in /  1012.4 hPa ENE 7.0 mph /  11.3 km/h 7.0 mph /  11.3 km/h 89 % 0.00 in /  0 mm
01:06 52.7 °F /  11.5 °C 49.5 °F /  9.7 °C 29.90 in /  1012.4 hPa ENE 7.0 mph /  11.3 km/h 13.0 mph /  20.9 km/h 89 % 0.00 in /  0 mm
01:11 52.6 °F /  11.4 °C 49.1 °F /  9.5 °C 29.89 in /  1012.1 hPa East 7.0 mph /  11.3 km/h 12.0 mph /  19.3 km/h 88 % 0.00 in /  0 mm
01:16 52.6 °F /  11.4 °C 49.4 °F /  9.7 °C 29.90 in /  1012.4 hPa ENE 7.0 mph /  11.3 km/h 13.0 mph /  20.9 km/h 89 % 0.00 in /  0 mm
01:21 52.6 °F /  11.4 °C 49.1 °F /  9.5 °C 29.90 in /  1012.4 hPa ENE 4.5 mph /  7.2 km/h 11.5 mph /  18.5 km/h 88 % 0.00 in /  0 mm
01:26 52.6 °F /  11.4 °C 49.4 °F /  9.7 °C 29.90 in /  1012.4 hPa ENE 3.4 mph /  5.5 km/h 8.1 mph /  13 km/h 89 % 0.00 in /  0 mm
01:31 52.6 °F /  11.4 °C 49.4 °F /  9.7 °C 29.90 in /  1012.4 hPa NNE 3.2 mph /  5.1 km/h 8.1 mph /  13 km/h 89 % 0.00 in /  0 mm
01:36 52.6 °F /  11.4 °C 49.4 °F /  9.7 °C 29.90 in /  1012.4 hPa NNE 3.8 mph /  6.1 km/h 10.4 mph /  16.7 km/h 89 % 0.00 in /  0 mm
01:41 52.5 °F /  11.4 °C 49.4 °F /  9.7 °C 29.90 in /  1012.4 hPa NE 3.1 mph /  5 km/h 7.0 mph /  11.3 km/h 89 % 0.00 in /  0 mm
01:46 52.4 °F /  11.3 °C 49.3 °F /  9.6 °C 29.90 in /  1012.4 hPa NE 3.0 mph /  4.8 km/h 10.0 mph /  16.1 km/h 89 % 0.00 in /  0 mm
01:51 52.4 °F /  11.3 °C 49.3 °F /  9.6 °C 29.90 in /  1012.4 hPa NNE 4.7 mph /  7.6 km/h 9.0 mph /  14.5 km/h 89 % 0.00 in /  0 mm
01:56 52.4 °F /  11.3 °C 49.6 °F /  9.8 °C 29.90 in /  1012.4 hPa ENE 3.7 mph /  6 km/h 7.0 mph /  11.3 km/h 90 % 0.00 in /  0 mm
02:01 52.4 °F /  11.3 °C 49.8 °F /  9.9 °C 29.90 in /  1012.4 hPa NE 3.6 mph /  5.8 km/h 5.0 mph /  8 km/h 91 % 0.00 in /  0 mm
02:06 52.4 °F /  11.3 °C 49.8 °F /  9.9 °C 29.90 in /  1012.4 hPa ENE 4.7 mph /  7.6 km/h 9.2 mph /  14.8 km/h 91 % 0.00 in /  0 mm
02:11 52.3 °F /  11.3 °C 49.8 °F /  9.9 °C 29.90 in /  1012.4 hPa NE 4.0 mph /  6.4 km/h 8.1 mph /  13 km/h 91 % 0.00 in /  0 mm
02:16 52.2 °F /  11.2 °C 49.7 °F /  9.8 °C 29.90 in /  1012.4 hPa NE 4.7 mph /  7.6 km/h 10.4 mph /  16.7 km/h 91 % 0.00 in /  0 mm
02:21 52.1 °F /  11.2 °C 49.6 °F /  9.8 °C 29.90 in /  1012.4 hPa NE 3.0 mph /  4.8 km/h 4.6 mph /  7.4 km/h 91 % 0.00 in /  0 mm
02:26 52.1 °F /  11.2 °C 49.6 °F /  9.8 °C 29.89 in /  1012.1 hPa ENE 3.4 mph /  5.5 km/h 8.1 mph /  13 km/h 91 % 0.00 in /  0 mm
02:31 52.1 °F /  11.2 °C 49.3 °F /  9.6 °C 29.89 in /  1012.1 hPa North 5.4 mph /  8.7 km/h 11.0 mph /  17.7 km/h 90 % 0.00 in /  0 mm
02:36 52.1 °F /  11.2 °C 49.3 °F /  9.6 °C 29.89 in /  1012.1 hPa ENE 3.3 mph /  5.3 km/h 8.1 mph /  13 km/h 90 % 0.00 in /  0 mm
02:41 52.2 °F /  11.2 °C 49.4 °F /  9.7 °C 29.90 in /  1012.4 hPa North 5.5 mph /  8.9 km/h 10.4 mph /  16.7 km/h 90 % 0.00 in /  0 mm
02:46 52.3 °F /  11.3 °C 49.5 °F /  9.7 °C 29.90 in /  1012.4 hPa NNE 6.1 mph /  9.8 km/h 10.4 mph /  16.7 km/h 90 % 0.00 in /  0 mm
02:51 52.3 °F /  11.3 °C 49.5 °F /  9.7 °C 29.90 in /  1012.4 hPa NNE 7.0 mph /  11.3 km/h 11.5 mph /  18.5 km/h 90 % 0.00 in /  0 mm
02:56 52.4 °F /  11.3 °C 49.6 °F /  9.8 °C 29.89 in /  1012.1 hPa NNE 5.9 mph /  9.5 km/h 11.0 mph /  17.7 km/h 90 % 0.00 in /  0 mm
03:00 52.4 °F /  11.3 °C 49.6 °F /  9.8 °C 29.90 in /  1012.4 hPa NNE 5.6 mph /  9 km/h 8.1 mph /  13 km/h 90 % 0.00 in /  0 mm
03:05 52.5 °F /  11.4 °C 49.9 °F /  9.9 °C 29.90 in /  1012.4 hPa NNE 4.4 mph /  7.1 km/h 6.0 mph /  9.7 km/h 91 % 0.00 in /  0 mm
03:10 52.5 °F /  11.4 °C 49.7 °F /  9.8 °C 29.89 in /  1012.1 hPa North 5.0 mph /  8 km/h 8.1 mph /  13 km/h 90 % 0.00 in /  0 mm
03:15 52.4 °F /  11.3 °C 49.6 °F /  9.8 °C 29.89 in /  1012.1 hPa NE 5.5 mph /  8.9 km/h 10.4 mph /  16.7 km/h 90 % 0.00 in /  0 mm
03:20 52.4 °F /  11.3 °C 49.6 °F /  9.8 °C 29.89 in /  1012.1 hPa NE 2.8 mph /  4.5 km/h 10.4 mph /  16.7 km/h 90 % 0.00 in /  0 mm
03:25 52.4 °F /  11.3 °C 49.6 °F /  9.8 °C 29.89 in /  1012.1 hPa ENE 3.7 mph /  6 km/h 10.4 mph /  16.7 km/h 90 % 0.00 in /  0 mm
03:30 52.4 °F /  11.3 °C 49.6 °F /  9.8 °C 29.89 in /  1012.1 hPa NNE 6.2 mph /  10 km/h 11.5 mph /  18.5 km/h 90 % 0.00 in /  0 mm
03:35 52.4 °F /  11.3 °C 49.6 °F /  9.8 °C 29.89 in /  1012.1 hPa NNE 3.4 mph /  5.5 km/h 9.2 mph /  14.8 km/h 90 % 0.00 in /  0 mm
03:41 52.4 °F /  11.3 °C 49.6 °F /  9.8 °C 29.89 in /  1012.1 hPa NE 5.0 mph /  8 km/h 9.0 mph /  14.5 km/h 90 % 0.00 in /  0 mm
03:46 52.4 °F /  11.3 °C 49.6 °F /  9.8 °C 29.89 in /  1012.1 hPa NE 5.0 mph /  8 km/h 9.0 mph /  14.5 km/h 90 % 0.00 in /  0 mm
03:51 52.4 °F /  11.3 °C 49.5 °F /  9.7 °C 29.89 in /  1012.1 hPa NNE 5.0 mph /  8 km/h 10.0 mph /  16.1 km/h 90 % 0.00 in /  0 mm
03:56 52.4 °F /  11.3 °C 49.6 °F /  9.8 °C 29.89 in /  1012.1 hPa NNE 5.0 mph /  8 km/h 12.0 mph /  19.3 km/h 90 % 0.00 in /  0 mm
04:01 52.4 °F /  11.3 °C 49.6 °F /  9.8 °C 29.89 in /  1012.1 hPa NNE 4.7 mph /  7.6 km/h 9.0 mph /  14.5 km/h 90 % 0.00 in /  0 mm
04:06 52.4 °F /  11.3 °C 49.6 °F /  9.8 °C 29.89 in /  1012.1 hPa North 5.2 mph /  8.4 km/h 11.5 mph /  18.5 km/h 90 % 0.00 in /  0 mm
04:11 52.4 °F /  11.3 °C 49.6 °F /  9.8 °C 29.89 in /  1012.1 hPa NE 5.4 mph /  8.7 km/h 10.4 mph /  16.7 km/h 90 % 0.00 in /  0 mm
04:16 52.4 °F /  11.3 °C 49.6 °F /  9.8 °C 29.89 in /  1012.1 hPa ENE 3.2 mph /  5.1 km/h 4.6 mph /  7.4 km/h 90 % 0.00 in /  0 mm
04:21 52.5 °F /  11.4 °C 49.9 °F /  9.9 °C 29.89 in /  1012.1 hPa NE 5.9 mph /  9.5 km/h 10.4 mph /  16.7 km/h 91 % 0.00 in /  0 mm
04:26 52.5 °F /  11.4 °C 49.7 °F /  9.8 °C 29.89 in /  1012.1 hPa NNE 4.5 mph /  7.2 km/h 10.4 mph /  16.7 km/h 90 % 0.00 in /  0 mm
04:31 52.5 °F /  11.4 °C 49.7 °F /  9.8 °C 29.89 in /  1012.1 hPa NE 4.0 mph /  6.4 km/h 5.0 mph /  8 km/h 90 % 0.00 in /  0 mm
04:36 52.5 °F /  11.4 °C 49.7 °F /  9.8 °C 29.89 in /  1012.1 hPa NNE 4.4 mph /  7.1 km/h 10.4 mph /  16.7 km/h 90 % 0.00 in /  0 mm
04:41 52.5 °F /  11.4 °C 49.9 °F /  9.9 °C 29.90 in /  1012.4 hPa NNE 4.5 mph /  7.2 km/h 8.1 mph /  13 km/h 91 % 0.00 in /  0 mm
04:46 52.6 °F /  11.4 °C 50.0 °F /  10 °C 29.90 in /  1012.4 hPa NE 7.4 mph /  11.9 km/h 12.7 mph /  20.4 km/h 91 % 0.00 in /  0 mm
04:51 52.5 °F /  11.4 °C 49.9 °F /  9.9 °C 29.90 in /  1012.4 hPa NNE 5.4 mph /  8.7 km/h 9.2 mph /  14.8 km/h 91 % 0.00 in /  0 mm
04:56 52.4 °F /  11.3 °C 49.8 °F /  9.9 °C 29.90 in /  1012.4 hPa NE 3.6 mph /  5.8 km/h 4.6 mph /  7.4 km/h 91 % 0.00 in /  0 mm
05:01 52.4 °F /  11.3 °C 49.8 °F /  9.9 °C 29.90 in /  1012.4 hPa NNE 6.2 mph /  10 km/h 8.1 mph /  13 km/h 91 % 0.00 in /  0 mm
05:06 52.4 °F /  11.3 °C 49.8 °F /  9.9 °C 29.90 in /  1012.4 hPa NNE 6.0 mph /  9.7 km/h 8.0 mph /  12.9 km/h 91 % 0.00 in /  0 mm
05:11 52.4 °F /  11.3 °C 49.8 °F /  9.9 °C 29.90 in /  1012.4 hPa NNE 5.8 mph /  9.3 km/h 9.2 mph /  14.8 km/h 91 % 0.00 in /  0 mm
05:16 52.4 °F /  11.3 °C 49.8 °F /  9.9 °C 29.90 in /  1012.4 hPa North 4.2 mph /  6.8 km/h 6.9 mph /  11.1 km/h 91 % 0.00 in /  0 mm
05:21 52.3 °F /  11.3 °C 49.8 °F /  9.9 °C 29.90 in /  1012.4 hPa NNE 5.2 mph /  8.4 km/h 6.9 mph /  11.1 km/h 91 % 0.00 in /  0 mm
05:26 52.3 °F /  11.3 °C 49.8 °F /  9.9 °C 29.90 in /  1012.4 hPa NNE 3.6 mph /  5.8 km/h 5.8 mph /  9.3 km/h 91 % 0.00 in /  0 mm
05:32 52.4 °F /  11.3 °C 49.8 °F /  9.9 °C 29.90 in /  1012.4 hPa NE 3.1 mph /  5 km/h 6.9 mph /  11.1 km/h 91 % 0.00 in /  0 mm
05:37 52.4 °F /  11.3 °C 49.8 °F /  9.9 °C 29.90 in /  1012.4 hPa North 2.9 mph /  4.7 km/h 6.9 mph /  11.1 km/h 91 % 0.00 in /  0 mm
05:42 52.3 °F /  11.3 °C 49.8 °F /  9.9 °C 29.90 in /  1012.4 hPa NNE 5.1 mph /  8.2 km/h 8.0 mph /  12.9 km/h 91 % 0.00 in /  0 mm
05:47 52.4 °F /  11.3 °C 50.1 °F /  10.1 °C 29.90 in /  1012.4 hPa NNE 4.5 mph /  7.2 km/h 8.1 mph /  13 km/h 92 % 0.00 in /  0 mm
05:52 52.4 °F /  11.3 °C 50.1 °F /  10.1 °C 29.90 in /  1012.4 hPa NNE 4.2 mph /  6.8 km/h 10.4 mph /  16.7 km/h 92 % 0.00 in /  0 mm
05:57 52.4 °F /  11.3 °C 50.1 °F /  10.1 °C 29.90 in /  1012.4 hPa North 4.0 mph /  6.4 km/h 8.1 mph /  13 km/h 92 % 0.00 in /  0 mm
06:02 52.4 °F /  11.3 °C 49.8 °F /  9.9 °C 29.91 in /  1012.8 hPa NE 3.6 mph /  5.8 km/h 8.0 mph /  12.9 km/h 91 % 0.00 in /  0 mm
06:07 52.5 °F /  11.4 °C 50.2 °F /  10.1 °C 29.91 in /  1012.8 hPa NNE 3.0 mph /  4.8 km/h 3.5 mph /  5.6 km/h 92 % 0.00 in /  0 mm
06:12 52.5 °F /  11.4 °C 49.9 °F /  9.9 °C 29.91 in /  1012.8 hPa NNE 5.5 mph /  8.9 km/h 9.2 mph /  14.8 km/h 91 % 0.00 in /  0 mm
06:17 52.6 °F /  11.4 °C 50.0 °F /  10 °C 29.91 in /  1012.8 hPa NNE 3.4 mph /  5.5 km/h 5.8 mph /  9.3 km/h 91 % 0.00 in /  0 mm
06:22 52.6 °F /  11.4 °C 50.0 °F /  10 °C 29.92 in /  1013.1 hPa NNE 2.1 mph /  3.4 km/h 5.0 mph /  8 km/h 91 % 0.00 in /  0 mm
06:27 52.6 °F /  11.4 °C 50.0 °F /  10 °C 29.92 in /  1013.1 hPa North 3.7 mph /  6 km/h 8.0 mph /  12.9 km/h 91 % 0.00 in /  0 mm
06:32 52.7 °F /  11.5 °C 50.4 °F /  10.2 °C 29.92 in /  1013.1 hPa NNE 2.8 mph /  4.5 km/h 4.6 mph /  7.4 km/h 92 % 0.00 in /  0 mm
06:37 52.7 °F /  11.5 °C 50.4 °F /  10.2 °C 29.92 in /  1013.1 hPa NNE 3.8 mph /  6.1 km/h 5.8 mph /  9.3 km/h 92 % 0.00 in /  0 mm
06:42 52.8 °F /  11.6 °C 50.5 °F /  10.3 °C 29.92 in /  1013.1 hPa North 3.2 mph /  5.1 km/h 5.8 mph /  9.3 km/h 92 % 0.00 in /  0 mm
06:47 52.8 °F /  11.6 °C 50.5 °F /  10.3 °C 29.92 in /  1013.1 hPa ENE 1.7 mph /  2.7 km/h 3.5 mph /  5.6 km/h 92 % 0.00 in /  0 mm
06:52 52.9 °F /  11.6 °C 50.6 °F /  10.3 °C 29.92 in /  1013.1 hPa NNE 3.7 mph /  6 km/h 4.6 mph /  7.4 km/h 92 % 0.00 in /  0 mm
06:57 53.0 °F /  11.7 °C 50.7 °F /  10.4 °C 29.92 in /  1013.1 hPa NNE 2.9 mph /  4.7 km/h 5.0 mph /  8 km/h 92 % 0.00 in /  0 mm
06:58 53.0 °F /  11.7 °C 50.7 °F /  10.4 °C 29.92 in /  1013.1 hPa NNE 3.7 mph /  6 km/h 5.0 mph /  8 km/h 92 % 0.00 in /  0 mm
07:03 53.0 °F /  11.7 °C 50.7 °F /  10.4 °C 29.93 in /  1013.4 hPa North 4.4 mph /  7.1 km/h 5.8 mph /  9.3 km/h 92 % 0.00 in /  0 mm
07:08 53.1 °F /  11.7 °C 50.8 °F /  10.4 °C 29.92 in /  1013.1 hPa NNE 3.3 mph /  5.3 km/h 5.8 mph /  9.3 km/h 92 % 0.00 in /  0 mm
07:13 53.3 °F /  11.8 °C 50.7 °F /  10.4 °C 29.93 in /  1013.4 hPa NE 2.3 mph /  3.7 km/h 5.8 mph /  9.3 km/h 91 % 0.00 in /  0 mm
07:18 53.4 °F /  11.9 °C 50.8 °F /  10.4 °C 29.93 in /  1013.4 hPa NNE 3.6 mph /  5.8 km/h 5.0 mph /  8 km/h 91 % 0.00 in /  0 mm
07:23 53.5 °F /  11.9 °C 50.9 °F /  10.5 °C 29.93 in /  1013.4 hPa North 2.3 mph /  3.7 km/h 4.6 mph /  7.4 km/h 91 % 0.00 in /  0 mm
07:28 53.6 °F /  12 °C 51.0 °F /  10.6 °C 29.93 in /  1013.4 hPa NNE 1.1 mph /  1.8 km/h 3.5 mph /  5.6 km/h 91 % 0.00 in /  0 mm
07:33 53.8 °F /  12.1 °C 51.2 °F /  10.7 °C 29.93 in /  1013.4 hPa NNE 3.5 mph /  5.6 km/h 4.6 mph /  7.4 km/h 91 % 0.00 in /  0 mm
07:38 54.0 °F /  12.2 °C 51.4 °F /  10.8 °C 29.93 in /  1013.4 hPa ENE 1.8 mph /  2.9 km/h 3.5 mph /  5.6 km/h 91 % 0.00 in /  0 mm
07:43 54.2 °F /  12.3 °C 51.6 °F /  10.9 °C 29.93 in /  1013.4 hPa NNE 4.6 mph /  7.4 km/h 6.9 mph /  11.1 km/h 91 % 0.00 in /  0 mm
07:48 54.4 °F /  12.4 °C 51.5 °F /  10.8 °C 29.93 in /  1013.4 hPa NNE 1.0 mph /  1.6 km/h 3.5 mph /  5.6 km/h 90 % 0.00 in /  0 mm
07:53 54.5 °F /  12.5 °C 51.6 °F /  10.9 °C 29.93 in /  1013.4 hPa NNW 3.5 mph /  5.6 km/h 5.0 mph /  8 km/h 90 % 0.00 in /  0 mm
07:58 54.7 °F /  12.6 °C 51.5 °F /  10.8 °C 29.94 in /  1013.8 hPa NNE 1.6 mph /  2.6 km/h 3.5 mph /  5.6 km/h 89 % 0.00 in /  0 mm
08:03 55.0 °F /  12.8 °C 51.8 °F /  11 °C 29.94 in /  1013.8 hPa South 1.2 mph /  1.9 km/h 2.3 mph /  3.7 km/h 89 % 0.00 in /  0 mm
08:08 55.2 °F /  12.9 °C 52.0 °F /  11.1 °C 29.94 in /  1013.8 hPa North 1.1 mph /  1.8 km/h 5.0 mph /  8 km/h 89 % 0.00 in /  0 mm
08:13 55.5 °F /  13.1 °C 52.3 °F /  11.3 °C 29.94 in /  1013.8 hPa NE 0.6 mph /  1 km/h 4.0 mph /  6.4 km/h 89 % 0.00 in /  0 mm
08:18 55.8 °F /  13.2 °C 52.3 °F /  11.3 °C 29.94 in /  1013.8 hPa NNE 0.9 mph /  1.4 km/h 3.5 mph /  5.6 km/h 88 % 0.00 in /  0 mm
08:23 56.1 °F /  13.4 °C 52.3 °F /  11.3 °C 29.95 in /  1014.1 hPa North 2.2 mph /  3.5 km/h 3.5 mph /  5.6 km/h 87 % 0.00 in /  0 mm
08:27 56.4 °F /  13.6 °C 52.6 °F /  11.4 °C 29.95 in /  1014.1 hPa NW 2.1 mph /  3.4 km/h 3.5 mph /  5.6 km/h 87 % 0.00 in /  0 mm
08:32 56.6 °F /  13.7 °C 52.1 °F /  11.2 °C 29.95 in /  1014.1 hPa WNW 1.8 mph /  2.9 km/h 4.6 mph /  7.4 km/h 85 % 0.00 in /  0 mm
08:37 56.7 °F /  13.7 °C 52.2 °F /  11.2 °C 29.95 in /  1014.1 hPa NNW 2.4 mph /  3.9 km/h 3.5 mph /  5.6 km/h 85 % 0.00 in /  0 mm
08:42 56.9 °F /  13.8 °C 52.4 °F /  11.3 °C 29.95 in /  1014.1 hPa North 2.8 mph /  4.5 km/h 4.6 mph /  7.4 km/h 85 % 0.00 in /  0 mm
08:47 57.2 °F /  14 °C 52.7 °F /  11.5 °C 29.95 in /  1014.1 hPa NW 0.7 mph /  1.1 km/h 3.5 mph /  5.6 km/h 85 % 0.00 in /  0 mm
08:52 57.4 °F /  14.1 °C 52.6 °F /  11.4 °C 29.95 in /  1014.1 hPa NNE 2.8 mph /  4.5 km/h 5.8 mph /  9.3 km/h 84 % 0.00 in /  0 mm
08:57 57.6 °F /  14.2 °C 52.8 °F /  11.6 °C 29.96 in /  1014.4 hPa NNE 2.2 mph /  3.5 km/h 3.5 mph /  5.6 km/h 84 % 0.00 in /  0 mm
09:02 57.8 °F /  14.3 °C 53.0 °F /  11.7 °C 29.96 in /  1014.4 hPa NNE 1.0 mph /  1.6 km/h 3.0 mph /  4.8 km/h 84 % 0.00 in /  0 mm
09:07 58.0 °F /  14.4 °C 52.9 °F /  11.6 °C 29.96 in /  1014.4 hPa NNW 1.5 mph /  2.4 km/h 3.5 mph /  5.6 km/h 83 % 0.00 in /  0 mm
09:12 58.1 °F /  14.5 °C 53.0 °F /  11.7 °C 29.96 in /  1014.4 hPa NNW 0.4 mph /  0.6 km/h 2.0 mph /  3.2 km/h 83 % 0.00 in /  0 mm
09:17 58.2 °F /  14.6 °C 52.7 °F /  11.5 °C 29.96 in /  1014.4 hPa North 1.5 mph /  2.4 km/h 4.0 mph /  6.4 km/h 82 % 0.00 in /  0 mm
09:22 58.3 °F /  14.6 °C 53.2 °F /  11.8 °C 29.96 in /  1014.4 hPa NNW 0.5 mph /  0.8 km/h 1.2 mph /  1.9 km/h 83 % 0.00 in /  0 mm
09:27 58.5 °F /  14.7 °C 53.4 °F /  11.9 °C 29.96 in /  1014.4 hPa NNW 0.4 mph /  0.6 km/h 2.0 mph /  3.2 km/h 83 % 0.00 in /  0 mm
09:32 58.7 °F /  14.8 °C 53.5 °F /  11.9 °C 29.96 in /  1014.4 hPa NNW 0.6 mph /  1 km/h 2.3 mph /  3.7 km/h 83 % 0.00 in /  0 mm
09:38 58.8 °F /  14.9 °C 53.6 °F /  12 °C 29.96 in /  1014.4 hPa NNW 1.0 mph /  1.6 km/h 2.3 mph /  3.7 km/h 83 % 0.00 in /  0 mm
09:43 59.0 °F /  15 °C 53.8 °F /  12.1 °C 29.95 in /  1014.1 hPa NNW 2.4 mph /  3.9 km/h 3.5 mph /  5.6 km/h 83 % 0.00 in /  0 mm
09:48 59.1 °F /  15.1 °C 53.6 °F /  12 °C 29.95 in /  1014.1 hPa NW 0.1 mph /  0.2 km/h 1.2 mph /  1.9 km/h 82 % 0.00 in /  0 mm
09:53 59.3 °F /  15.2 °C 53.5 °F /  11.9 °C 29.95 in /  1014.1 hPa NW 0.5 mph /  0.8 km/h 2.0 mph /  3.2 km/h 81 % 0.00 in /  0 mm
09:58 59.4 °F /  15.2 °C 53.2 °F /  11.8 °C 29.95 in /  1014.1 hPa NW 0.4 mph /  0.6 km/h 2.3 mph /  3.7 km/h 80 % 0.00 in /  0 mm
10:03 59.6 °F /  15.3 °C 53.4 °F /  11.9 °C 29.95 in /  1014.1 hPa NW 0.3 mph /  0.5 km/h 1.2 mph /  1.9 km/h 80 % 0.00 in /  0 mm
10:08 59.9 °F /  15.5 °C 54.4 °F /  12.4 °C 29.95 in /  1014.1 hPa Calm     82 % 0.00 in /  0 mm
10:13 60.2 °F /  15.7 °C 54.3 °F /  12.4 °C 29.95 in /  1014.1 hPa North 0.3 mph /  0.5 km/h 1.2 mph /  1.9 km/h 81 % 0.00 in /  0 mm
10:18 60.7 °F /  15.9 °C 54.8 °F /  12.7 °C 29.95 in /  1014.1 hPa Calm     81 % 0.00 in /  0 mm
10:23 61.0 °F /  16.1 °C 54.1 °F /  12.3 °C 29.95 in /  1014.1 hPa NNE 0.1 mph /  0.2 km/h 3.5 mph /  5.6 km/h 78 % 0.00 in /  0 mm
10:28 61.3 °F /  16.3 °C 54.0 °F /  12.2 °C 29.95 in /  1014.1 hPa NNE 2.2 mph /  3.5 km/h 4.0 mph /  6.4 km/h 77 % 0.00 in /  0 mm
10:33 61.6 °F /  16.4 °C 54.0 °F /  12.2 °C 29.95 in /  1014.1 hPa NNE 0.2 mph /  0.3 km/h 1.2 mph /  1.9 km/h 76 % 0.00 in /  0 mm
10:38 61.8 °F /  16.6 °C 54.5 °F /  12.5 °C 29.96 in /  1014.4 hPa North 1.0 mph /  1.6 km/h 2.3 mph /  3.7 km/h 77 % 0.00 in /  0 mm
10:43 62.2 °F /  16.8 °C 54.9 °F /  12.7 °C 29.95 in /  1014.1 hPa NNE 0.1 mph /  0.2 km/h 3.5 mph /  5.6 km/h 77 % 0.00 in /  0 mm
10:48 62.7 °F /  17.1 °C 55.4 °F /  13 °C 29.95 in /  1014.1 hPa NNW 1.7 mph /  2.7 km/h 2.3 mph /  3.7 km/h 77 % 0.00 in /  0 mm
10:53 63.5 °F /  17.5 °C 55.8 °F /  13.2 °C 29.95 in /  1014.1 hPa North 2.8 mph /  4.5 km/h 3.5 mph /  5.6 km/h 76 % 0.00 in /  0 mm
10:58 64.2 °F /  17.9 °C 55.4 °F /  13 °C 29.95 in /  1014.1 hPa North 1.4 mph /  2.3 km/h 3.5 mph /  5.6 km/h 73 % 0.00 in /  0 mm
11:03 65.0 °F /  18.3 °C 56.1 °F /  13.4 °C 29.96 in /  1014.4 hPa NE 1.3 mph /  2.1 km/h 2.0 mph /  3.2 km/h 73 % 0.00 in /  0 mm
11:08 65.5 °F /  18.6 °C 55.8 °F /  13.2 °C 29.96 in /  1014.4 hPa NE 1.0 mph /  1.6 km/h 3.5 mph /  5.6 km/h 71 % 0.00 in /  0 mm
11:14 65.6 °F /  18.7 °C 55.5 °F /  13.1 °C 29.96 in /  1014.4 hPa NNE 0.1 mph /  0.2 km/h 2.3 mph /  3.7 km/h 70 % 0.00 in /  0 mm
11:19 65.8 °F /  18.8 °C 55.7 °F /  13.2 °C 29.96 in /  1014.4 hPa NNE 1.8 mph /  2.9 km/h 3.5 mph /  5.6 km/h 70 % 0.00 in /  0 mm
11:24 66.0 °F /  18.9 °C 55.9 °F /  13.3 °C 29.96 in /  1014.4 hPa NE 0.7 mph /  1.1 km/h 3.5 mph /  5.6 km/h 70 % 0.00 in /  0 mm
11:29 66.2 °F /  19 °C 55.7 °F /  13.2 °C 29.95 in /  1014.1 hPa NE 1.2 mph /  1.9 km/h 3.5 mph /  5.6 km/h 69 % 0.00 in /  0 mm
11:34 66.3 °F /  19.1 °C 56.2 °F /  13.4 °C 29.95 in /  1014.1 hPa NE 0.4 mph /  0.6 km/h 2.3 mph /  3.7 km/h 70 % 0.00 in /  0 mm
11:39 66.5 °F /  19.2 °C 56.4 °F /  13.6 °C 29.95 in /  1014.1 hPa SE 0.2 mph /  0.3 km/h 1.2 mph /  1.9 km/h 70 % 0.00 in /  0 mm
11:44 66.3 °F /  19.1 °C 54.6 °F /  12.6 °C 29.95 in /  1014.1 hPa NE 1.3 mph /  2.1 km/h 3.5 mph /  5.6 km/h 66 % 0.00 in /  0 mm
11:49 65.9 °F /  18.8 °C 54.6 °F /  12.6 °C 29.96 in /  1014.4 hPa ENE 2.4 mph /  3.9 km/h 4.0 mph /  6.4 km/h 67 % 0.00 in /  0 mm
11:54 65.9 °F /  18.8 °C 55.0 °F /  12.8 °C 29.95 in /  1014.1 hPa ENE 0.8 mph /  1.3 km/h 3.0 mph /  4.8 km/h 68 % 0.00 in /  0 mm
11:59 65.9 °F /  18.8 °C 54.2 °F /  12.3 °C 29.95 in /  1014.1 hPa ENE 1.0 mph /  1.6 km/h 3.5 mph /  5.6 km/h 66 % 0.00 in /  0 mm
12:04 66.0 °F /  18.9 °C 54.3 °F /  12.4 °C 29.95 in /  1014.1 hPa ENE 1.7 mph /  2.7 km/h 4.0 mph /  6.4 km/h 66 % 0.00 in /  0 mm
12:09 66.3 °F /  19.1 °C 56.6 °F /  13.7 °C 29.95 in /  1014.1 hPa NNE 1.3 mph /  2.1 km/h 4.0 mph /  6.4 km/h 71 % 0.00 in /  0 mm
12:14 66.6 °F /  19.2 °C 57.3 °F /  14.1 °C 29.95 in /  1014.1 hPa NNE 0.5 mph /  0.8 km/h 2.3 mph /  3.7 km/h 72 % 0.00 in /  0 mm
12:19 67.0 °F /  19.4 °C 54.4 °F /  12.4 °C 29.95 in /  1014.1 hPa ENE 1.8 mph /  2.9 km/h 3.5 mph /  5.6 km/h 64 % 0.00 in /  0 mm
12:25 68.1 °F /  20.1 °C 58.3 °F /  14.6 °C 29.95 in /  1014.1 hPa Calm   1.2 mph /  1.9 km/h 71 % 0.00 in /  0 mm
12:30 68.9 °F /  20.5 °C 55.8 °F /  13.2 °C 29.94 in /  1013.8 hPa Calm   1.2 mph /  1.9 km/h 63 % 0.00 in /  0 mm
12:35 69.7 °F /  20.9 °C 56.5 °F /  13.6 °C 29.94 in /  1013.8 hPa ENE 2.5 mph /  4 km/h 4.6 mph /  7.4 km/h 63 % 0.00 in /  0 mm
12:40 70.1 °F /  21.2 °C 55.1 °F /  12.8 °C 29.94 in /  1013.8 hPa NE 0.8 mph /  1.3 km/h 2.3 mph /  3.7 km/h 59 % 0.00 in /  0 mm
12:45 70.4 °F /  21.3 °C 55.4 °F /  13 °C 29.94 in /  1013.8 hPa ENE 1.8 mph /  2.9 km/h 3.5 mph /  5.6 km/h 59 % 0.00 in /  0 mm
12:50 70.6 °F /  21.4 °C 55.6 °F /  13.1 °C 29.94 in /  1013.8 hPa NE 3.4 mph /  5.5 km/h 5.8 mph /  9.3 km/h 59 % 0.00 in /  0 mm
12:55 70.9 °F /  21.6 °C 55.4 °F /  13 °C 29.94 in /  1013.8 hPa Calm   1.2 mph /  1.9 km/h 58 % 0.00 in /  0 mm
13:00 71.0 °F /  21.7 °C 55.5 °F /  13.1 °C 29.94 in /  1013.8 hPa NE 0.4 mph /  0.6 km/h 5.8 mph /  9.3 km/h 58 % 0.00 in /  0 mm
13:05 70.9 °F /  21.6 °C 54.4 °F /  12.4 °C 29.94 in /  1013.8 hPa NE 0.5 mph /  0.8 km/h 3.5 mph /  5.6 km/h 56 % 0.00 in /  0 mm
13:10 70.9 °F /  21.6 °C 54.9 °F /  12.7 °C 29.94 in /  1013.8 hPa ENE 0.7 mph /  1.1 km/h 3.5 mph /  5.6 km/h 57 % 0.00 in /  0 mm
13:15 70.8 °F /  21.6 °C 53.8 °F /  12.1 °C 29.94 in /  1013.8 hPa ENE 2.5 mph /  4 km/h 3.5 mph /  5.6 km/h 55 % 0.00 in /  0 mm
13:20 71.0 °F /  21.7 °C 53.5 °F /  11.9 °C 29.94 in /  1013.8 hPa ENE 0.8 mph /  1.3 km/h 4.6 mph /  7.4 km/h 54 % 0.00 in /  0 mm
13:25 71.2 °F /  21.8 °C 55.7 °F /  13.2 °C 29.94 in /  1013.8 hPa ENE 1.9 mph /  3.1 km/h 4.0 mph /  6.4 km/h 58 % 0.00 in /  0 mm
13:30 70.8 °F /  21.6 °C 53.8 °F /  12.1 °C 29.94 in /  1013.8 hPa NE 2.1 mph /  3.4 km/h 4.0 mph /  6.4 km/h 55 % 0.00 in /  0 mm
13:35 70.7 °F /  21.5 °C 53.2 °F /  11.8 °C 29.94 in /  1013.8 hPa ENE 1.6 mph /  2.6 km/h 3.5 mph /  5.6 km/h 54 % 0.00 in /  0 mm
13:40 70.8 °F /  21.6 °C 53.3 °F /  11.8 °C 29.94 in /  1013.8 hPa East 0.4 mph /  0.6 km/h 4.6 mph /  7.4 km/h 54 % 0.00 in /  0 mm
13:41 70.8 °F /  21.6 °C 55.3 °F /  12.9 °C 29.94 in /  1013.8 hPa ENE 2.0 mph /  3.2 km/h 3.5 mph /  5.6 km/h 58 % 0.00 in /  0 mm
13:46 70.9 °F /  21.6 °C 55.4 °F /  13 °C 29.94 in /  1013.8 hPa NNE 2.3 mph /  3.7 km/h 5.8 mph /  9.3 km/h 58 % 0.00 in /  0 mm
13:51 71.0 °F /  21.7 °C 55.9 °F /  13.3 °C 29.94 in /  1013.8 hPa North 0.5 mph /  0.8 km/h 2.3 mph /  3.7 km/h 59 % 0.00 in /  0 mm
13:56 71.1 °F /  21.7 °C 55.6 °F /  13.1 °C 29.94 in /  1013.8 hPa Calm   1.2 mph /  1.9 km/h 58 % 0.00 in /  0 mm
14:01 71.5 °F /  21.9 °C 56.9 °F /  13.8 °C 29.94 in /  1013.8 hPa NNE 1.9 mph /  3.1 km/h 5.0 mph /  8 km/h 60 % 0.00 in /  0 mm
14:06 71.8 °F /  22.1 °C 55.7 °F /  13.2 °C 29.94 in /  1013.8 hPa North 0.9 mph /  1.4 km/h 3.0 mph /  4.8 km/h 57 % 0.00 in /  0 mm
14:11 71.7 °F /  22.1 °C 55.7 °F /  13.2 °C 29.94 in /  1013.8 hPa NNE 4.4 mph /  7.1 km/h 6.0 mph /  9.7 km/h 57 % 0.00 in /  0 mm
14:16 71.8 °F /  22.1 °C 57.6 °F /  14.2 °C 29.94 in /  1013.8 hPa North 2.0 mph /  3.2 km/h 5.8 mph /  9.3 km/h 61 % 0.00 in /  0 mm
14:21 72.1 °F /  22.3 °C 56.0 °F /  13.3 °C 29.95 in /  1014.1 hPa NNE 2.5 mph /  4 km/h 5.0 mph /  8 km/h 57 % 0.00 in /  0 mm
14:26 72.3 °F /  22.4 °C 57.2 °F /  14 °C 29.95 in /  1014.1 hPa NNE 2.1 mph /  3.4 km/h 3.5 mph /  5.6 km/h 59 % 0.00 in /  0 mm
14:31 72.7 °F /  22.6 °C 55.6 °F /  13.1 °C 29.94 in /  1013.8 hPa North 2.4 mph /  3.9 km/h 6.9 mph /  11.1 km/h 55 % 0.00 in /  0 mm
14:36 73.0 °F /  22.8 °C 54.9 °F /  12.7 °C 29.94 in /  1013.8 hPa WNW 0.2 mph /  0.3 km/h 5.8 mph /  9.3 km/h 53 % 0.00 in /  0 mm
14:42 73.0 °F /  22.8 °C 55.9 °F /  13.3 °C 29.94 in /  1013.8 hPa NNE 0.2 mph /  0.3 km/h 3.5 mph /  5.6 km/h 55 % 0.00 in /  0 mm
14:47 73.2 °F /  22.9 °C 56.1 °F /  13.4 °C 29.94 in /  1013.8 hPa WNW 1.3 mph /  2.1 km/h 3.5 mph /  5.6 km/h 55 % 0.00 in /  0 mm
14:52 73.5 °F /  23.1 °C 56.3 °F /  13.5 °C 29.94 in /  1013.8 hPa NW 2.2 mph /  3.5 km/h 4.0 mph /  6.4 km/h 55 % 0.00 in /  0 mm
14:53 73.5 °F /  23.1 °C 54.8 °F /  12.7 °C 29.94 in /  1013.8 hPa NW 2.2 mph /  3.5 km/h 4.0 mph /  6.4 km/h 52 % 0.00 in /  0 mm
14:58 73.7 °F /  23.2 °C 55.5 °F /  13.1 °C 29.94 in /  1013.8 hPa North 2.6 mph /  4.2 km/h 4.6 mph /  7.4 km/h 53 % 0.00 in /  0 mm
15:03 73.7 °F /  23.2 °C 56.5 °F /  13.6 °C 29.94 in /  1013.8 hPa NNW 1.0 mph /  1.6 km/h 2.3 mph /  3.7 km/h 55 % 0.00 in /  0 mm
15:08 73.8 °F /  23.2 °C 56.1 °F /  13.4 °C 29.94 in /  1013.8 hPa NE 1.2 mph /  1.9 km/h 4.6 mph /  7.4 km/h 54 % 0.00 in /  0 mm
15:13 73.7 °F /  23.2 °C 55.0 °F /  12.8 °C 29.94 in /  1013.8 hPa NNW 3.4 mph /  5.5 km/h 6.9 mph /  11.1 km/h 52 % 0.00 in /  0 mm
15:18 73.7 °F /  23.2 °C 52.2 °F /  11.2 °C 29.95 in /  1014.1 hPa NNW 2.4 mph /  3.9 km/h 3.5 mph /  5.6 km/h 47 % 0.00 in /  0 mm
15:23 73.5 °F /  23.1 °C 51.4 °F /  10.8 °C 29.94 in /  1013.8 hPa Calm   1.0 mph /  1.6 km/h 46 % 0.00 in /  0 mm
15:28 73.5 °F /  23.1 °C 54.3 °F /  12.4 °C 29.94 in /  1013.8 hPa NNE 2.3 mph /  3.7 km/h 4.6 mph /  7.4 km/h 51 % 0.00 in /  0 mm
15:33 73.6 °F /  23.1 °C 53.8 °F /  12.1 °C 29.94 in /  1013.8 hPa WNW 3.3 mph /  5.3 km/h 4.6 mph /  7.4 km/h 50 % 0.00 in /  0 mm
15:38 73.8 °F /  23.2 °C 54.0 °F /  12.2 °C 29.94 in /  1013.8 hPa NW 1.5 mph /  2.4 km/h 4.0 mph /  6.4 km/h 50 % 0.00 in /  0 mm
15:43 73.7 °F /  23.2 °C 53.9 °F /  12.2 °C 29.95 in /  1014.1 hPa North 1.2 mph /  1.9 km/h 3.5 mph /  5.6 km/h 50 % 0.00 in /  0 mm
15:48 73.4 °F /  23 °C 52.5 °F /  11.4 °C 29.95 in /  1014.1 hPa NNW 3.6 mph /  5.8 km/h 6.9 mph /  11.1 km/h 48 % 0.00 in /  0 mm
15:53 73.2 °F /  22.9 °C 53.4 °F /  11.9 °C 29.94 in /  1013.8 hPa NW 3.1 mph /  5 km/h 6.9 mph /  11.1 km/h 50 % 0.00 in /  0 mm
15:58 73.1 °F /  22.8 °C 53.4 °F /  11.9 °C 29.95 in /  1014.1 hPa WNW 3.4 mph /  5.5 km/h 4.6 mph /  7.4 km/h 50 % 0.00 in /  0 mm
16:03 73.2 °F /  22.9 °C 54.5 °F /  12.5 °C 29.95 in /  1014.1 hPa North 1.4 mph /  2.3 km/h 3.0 mph /  4.8 km/h 52 % 0.00 in /  0 mm
16:08 73.0 °F /  22.8 °C 51.6 °F /  10.9 °C 29.95 in /  1014.1 hPa NNW 0.7 mph /  1.1 km/h 3.5 mph /  5.6 km/h 47 % 0.00 in /  0 mm
16:14 72.9 °F /  22.7 °C 53.2 °F /  11.8 °C 29.95 in /  1014.1 hPa NNE 0.7 mph /  1.1 km/h 3.5 mph /  5.6 km/h 50 % 0.00 in /  0 mm
16:19 72.7 °F /  22.6 °C 53.0 °F /  11.7 °C 29.95 in /  1014.1 hPa North 1.8 mph /  2.9 km/h 3.5 mph /  5.6 km/h 50 % 0.00 in /  0 mm
16:24 72.4 °F /  22.4 °C 52.7 °F /  11.5 °C 29.95 in /  1014.1 hPa WNW 2.6 mph /  4.2 km/h 3.5 mph /  5.6 km/h 50 % 0.00 in /  0 mm
16:29 72.4 °F /  22.4 °C 53.2 °F /  11.8 °C 29.95 in /  1014.1 hPa WNW 1.3 mph /  2.1 km/h 3.5 mph /  5.6 km/h 51 % 0.00 in /  0 mm
16:34 72.3 °F /  22.4 °C 51.5 °F /  10.8 °C 29.95 in /  1014.1 hPa NW 2.1 mph /  3.4 km/h 3.5 mph /  5.6 km/h 48 % 0.00 in /  0 mm
16:39 72.2 °F /  22.3 °C 53.6 °F /  12 °C 29.95 in /  1014.1 hPa NNE 0.8 mph /  1.3 km/h 3.5 mph /  5.6 km/h 52 % 0.00 in /  0 mm
16:44 71.8 °F /  22.1 °C 52.2 °F /  11.2 °C 29.95 in /  1014.1 hPa North 1.2 mph /  1.9 km/h 3.5 mph /  5.6 km/h 50 % 0.00 in /  0 mm
16:49 71.6 °F /  22 °C 52.5 °F /  11.4 °C 29.95 in /  1014.1 hPa WNW 1.7 mph /  2.7 km/h 3.5 mph /  5.6 km/h 51 % 0.00 in /  0 mm
16:54 71.4 °F /  21.9 °C 51.8 °F /  11 °C 29.95 in /  1014.1 hPa WNW 1.6 mph /  2.6 km/h 2.3 mph /  3.7 km/h 50 % 0.00 in /  0 mm
16:59 71.2 °F /  21.8 °C 52.1 °F /  11.2 °C 29.96 in /  1014.4 hPa WNW 1.2 mph /  1.9 km/h 3.5 mph /  5.6 km/h 51 % 0.00 in /  0 mm
17:00 71.2 °F /  21.8 °C 52.1 °F /  11.2 °C 29.95 in /  1014.1 hPa WNW 1.7 mph /  2.7 km/h 4.0 mph /  6.4 km/h 51 % 0.00 in /  0 mm
17:05 71.0 °F /  21.7 °C 53.5 °F /  11.9 °C 29.96 in /  1014.4 hPa WNW 0.1 mph /  0.2 km/h 1.2 mph /  1.9 km/h 54 % 0.00 in /  0 mm
17:10 70.8 °F /  21.6 °C 53.3 °F /  11.8 °C 29.96 in /  1014.4 hPa North 0.5 mph /  0.8 km/h 3.5 mph /  5.6 km/h 54 % 0.00 in /  0 mm
17:15 70.6 °F /  21.4 °C 55.1 °F /  12.8 °C 29.96 in /  1014.4 hPa NNW 0.9 mph /  1.4 km/h 3.5 mph /  5.6 km/h 58 % 0.00 in /  0 mm
17:20 70.5 °F /  21.4 °C 53.1 °F /  11.7 °C 29.95 in /  1014.1 hPa WNW 2.0 mph /  3.2 km/h 3.5 mph /  5.6 km/h 54 % 0.00 in /  0 mm
17:25 70.4 °F /  21.3 °C 52.4 °F /  11.3 °C 29.95 in /  1014.1 hPa WNW 1.0 mph /  1.6 km/h 3.5 mph /  5.6 km/h 53 % 0.00 in /  0 mm
17:30 70.3 °F /  21.3 °C 53.9 °F /  12.2 °C 29.96 in /  1014.4 hPa NW 0.1 mph /  0.2 km/h 1.2 mph /  1.9 km/h 56 % 0.00 in /  0 mm
17:35 70.2 °F /  21.2 °C 52.8 °F /  11.6 °C 29.95 in /  1014.1 hPa Calm   1.0 mph /  1.6 km/h 54 % 0.00 in /  0 mm
17:40 70.1 °F /  21.2 °C 52.7 °F /  11.5 °C 29.95 in /  1014.1 hPa NNW 1.1 mph /  1.8 km/h 2.3 mph /  3.7 km/h 54 % 0.00 in /  0 mm
17:45 69.9 °F /  21.1 °C 52.5 °F /  11.4 °C 29.95 in /  1014.1 hPa NNW 0.3 mph /  0.5 km/h 2.3 mph /  3.7 km/h 54 % 0.00 in /  0 mm
17:50 69.8 °F /  21 °C 52.9 °F /  11.6 °C 29.95 in /  1014.1 hPa Calm     55 % 0.00 in /  0 mm
17:55 69.7 °F /  20.9 °C 51.3 °F /  10.7 °C 29.95 in /  1014.1 hPa NNW 0.1 mph /  0.2 km/h 1.0 mph /  1.6 km/h 52 % 0.00 in /  0 mm
18:00 69.6 °F /  20.9 °C 52.2 °F /  11.2 °C 29.95 in /  1014.1 hPa NNW 0.3 mph /  0.5 km/h 1.2 mph /  1.9 km/h 54 % 0.00 in /  0 mm
18:05 69.5 °F /  20.8 °C 51.6 °F /  10.9 °C 29.95 in /  1014.1 hPa NNW 0.8 mph /  1.3 km/h 2.3 mph /  3.7 km/h 53 % 0.00 in /  0 mm
18:10 69.4 °F /  20.8 °C 52.5 °F /  11.4 °C 29.96 in /  1014.4 hPa NW 0.8 mph /  1.3 km/h 2.3 mph /  3.7 km/h 55 % 0.00 in /  0 mm
18:15 69.4 °F /  20.8 °C 52.5 °F /  11.4 °C 29.95 in /  1014.1 hPa Calm     55 % 0.00 in /  0 mm
18:20 69.3 °F /  20.7 °C 51.4 °F /  10.8 °C 29.95 in /  1014.1 hPa West 1.0 mph /  1.6 km/h 3.5 mph /  5.6 km/h 53 % 0.00 in /  0 mm
18:25 69.2 °F /  20.7 °C 50.8 °F /  10.4 °C 29.95 in /  1014.1 hPa West 1.6 mph /  2.6 km/h 3.5 mph /  5.6 km/h 52 % 0.00 in /  0 mm
18:30 69.1 °F /  20.6 °C 50.7 °F /  10.4 °C 29.95 in /  1014.1 hPa West 0.6 mph /  1 km/h 2.0 mph /  3.2 km/h 52 % 0.00 in /  0 mm
18:35 68.9 °F /  20.5 °C 50.5 °F /  10.3 °C 29.95 in /  1014.1 hPa WNW 1.4 mph /  2.3 km/h 3.5 mph /  5.6 km/h 52 % 0.00 in /  0 mm
18:40 68.8 °F /  20.4 °C 51.0 °F /  10.6 °C 29.95 in /  1014.1 hPa WNW 1.0 mph /  1.6 km/h 2.3 mph /  3.7 km/h 53 % 0.00 in /  0 mm
18:45 68.7 °F /  20.4 °C 51.4 °F /  10.8 °C 29.95 in /  1014.1 hPa WSW 0.4 mph /  0.6 km/h 2.3 mph /  3.7 km/h 54 % 0.00 in /  0 mm
18:50 68.6 °F /  20.3 °C 50.8 °F /  10.4 °C 29.96 in /  1014.4 hPa WSW 1.8 mph /  2.9 km/h 3.5 mph /  5.6 km/h 53 % 0.00 in /  0 mm
18:55 68.5 °F /  20.3 °C 51.7 °F /  10.9 °C 29.96 in /  1014.4 hPa WSW 0.5 mph /  0.8 km/h 1.2 mph /  1.9 km/h 55 % 0.00 in /  0 mm
19:01 68.4 °F /  20.2 °C 52.1 °F /  11.2 °C 29.96 in /  1014.4 hPa NW 0.5 mph /  0.8 km/h 3.5 mph /  5.6 km/h 56 % 0.00 in /  0 mm
19:06 68.4 °F /  20.2 °C 52.1 °F /  11.2 °C 29.95 in /  1014.1 hPa Calm     56 % 0.00 in /  0 mm
19:11 68.3 °F /  20.2 °C 52.5 °F /  11.4 °C 29.96 in /  1014.4 hPa NW 1.0 mph /  1.6 km/h 3.0 mph /  4.8 km/h 57 % 0.00 in /  0 mm
19:16 68.2 °F /  20.1 °C 52.9 °F /  11.6 °C 29.95 in /  1014.1 hPa WSW 1.0 mph /  1.6 km/h 4.0 mph /  6.4 km/h 58 % 0.00 in /  0 mm
19:21 68.1 °F /  20.1 °C 52.8 °F /  11.6 °C 29.96 in /  1014.4 hPa SW 1.0 mph /  1.6 km/h 3.0 mph /  4.8 km/h 58 % 0.00 in /  0 mm
19:26 68.0 °F /  20 °C 52.7 °F /  11.5 °C 29.95 in /  1014.1 hPa WSW 1.0 mph /  1.6 km/h 3.0 mph /  4.8 km/h 58 % 0.00 in /  0 mm
19:31 67.9 °F /  19.9 °C 53.0 °F /  11.7 °C 29.95 in /  1014.1 hPa West 1.2 mph /  1.9 km/h 2.3 mph /  3.7 km/h 59 % 0.00 in /  0 mm
19:36 67.8 °F /  19.9 °C 52.9 °F /  11.6 °C 29.96 in /  1014.4 hPa West 1.0 mph /  1.6 km/h 5.0 mph /  8 km/h 59 % 0.00 in /  0 mm
19:41 67.7 °F /  19.8 °C 52.9 °F /  11.6 °C 29.96 in /  1014.4 hPa WSW 0.4 mph /  0.6 km/h 3.5 mph /  5.6 km/h 59 % 0.00 in /  0 mm
19:46 67.5 °F /  19.7 °C 53.1 °F /  11.7 °C 29.96 in /  1014.4 hPa West 1.0 mph /  1.6 km/h 4.0 mph /  6.4 km/h 60 % 0.00 in /  0 mm
19:51 67.3 °F /  19.6 °C 53.4 °F /  11.9 °C 29.96 in /  1014.4 hPa WNW 2.0 mph /  3.2 km/h 3.0 mph /  4.8 km/h 61 % 0.00 in /  0 mm
19:56 67.1 °F /  19.5 °C 53.2 °F /  11.8 °C 29.96 in /  1014.4 hPa West 1.0 mph /  1.6 km/h 5.0 mph /  8 km/h 61 % 0.00 in /  0 mm
20:01 66.9 °F /  19.4 °C 53.5 °F /  11.9 °C 29.96 in /  1014.4 hPa WSW 0.1 mph /  0.2 km/h   62 % 0.00 in /  0 mm
20:06 66.6 °F /  19.2 °C 54.1 °F /  12.3 °C 29.96 in /  1014.4 hPa Calm   3.0 mph /  4.8 km/h 64 % 0.00 in /  0 mm
20:11 66.3 °F /  19.1 °C 54.2 °F /  12.3 °C 29.96 in /  1014.4 hPa Calm   1.2 mph /  1.9 km/h 65 % 0.00 in /  0 mm
20:16 66.0 °F /  18.9 °C 54.3 °F /  12.4 °C 29.96 in /  1014.4 hPa Calm     66 % 0.00 in /  0 mm
20:21 65.6 °F /  18.7 °C 54.3 °F /  12.4 °C 29.96 in /  1014.4 hPa Calm     67 % 0.00 in /  0 mm
20:26 65.1 °F /  18.4 °C 54.3 °F /  12.4 °C 29.97 in /  1014.8 hPa Calm   1.2 mph /  1.9 km/h 68 % 0.00 in /  0 mm
20:31 64.7 °F /  18.2 °C 54.7 °F /  12.6 °C 29.97 in /  1014.8 hPa Calm     70 % 0.00 in /  0 mm
20:36 64.3 °F /  17.9 °C 54.7 °F /  12.6 °C 29.97 in /  1014.8 hPa Calm     71 % 0.00 in /  0 mm
20:41 63.9 °F /  17.7 °C 54.3 °F /  12.4 °C 29.97 in /  1014.8 hPa Calm     71 % 0.00 in /  0 mm
20:46 63.5 °F /  17.5 °C 54.3 °F /  12.4 °C 29.97 in /  1014.8 hPa Calm   1.2 mph /  1.9 km/h 72 % 0.00 in /  0 mm
20:48 63.4 °F /  17.4 °C 54.2 °F /  12.3 °C 29.97 in /  1014.8 hPa WSW 0.1 mph /  0.2 km/h 1.2 mph /  1.9 km/h 72 % 0.00 in /  0 mm
20:53 63.1 °F /  17.3 °C 54.3 °F /  12.4 °C 29.97 in /  1014.8 hPa Calm     73 % 0.00 in /  0 mm
20:58 62.8 °F /  17.1 °C 54.0 °F /  12.2 °C 29.97 in /  1014.8 hPa WSW 0.1 mph /  0.2 km/h 1.2 mph /  1.9 km/h 73 % 0.00 in /  0 mm
21:03 62.6 °F /  17 °C 54.2 °F /  12.3 °C 29.97 in /  1014.8 hPa Calm     74 % 0.00 in /  0 mm
21:08 62.4 °F /  16.9 °C 54.0 °F /  12.2 °C 29.97 in /  1014.8 hPa Calm     74 % 0.00 in /  0 mm
21:13 62.1 °F /  16.7 °C 54.1 °F /  12.3 °C 29.98 in /  1015.1 hPa Calm     75 % 0.00 in /  0 mm
21:18 61.7 °F /  16.5 °C 54.1 °F /  12.3 °C 29.97 in /  1014.8 hPa Calm     76 % 0.00 in /  0 mm
21:23 61.4 °F /  16.3 °C 53.8 °F /  12.1 °C 29.98 in /  1015.1 hPa Calm   1.2 mph /  1.9 km/h 76 % 0.00 in /  0 mm
21:28 61.2 °F /  16.2 °C 53.6 °F /  12 °C 29.98 in /  1015.1 hPa Calm   1.2 mph /  1.9 km/h 76 % 0.00 in /  0 mm
21:33 60.9 °F /  16.1 °C 53.3 °F /  11.8 °C 29.98 in /  1015.1 hPa Calm     76 % 0.00 in /  0 mm
21:38 60.6 °F /  15.9 °C 53.0 °F /  11.7 °C 29.98 in /  1015.1 hPa Calm   1.2 mph /  1.9 km/h 76 % 0.00 in /  0 mm
21:43 60.4 °F /  15.8 °C 52.8 °F /  11.6 °C 29.98 in /  1015.1 hPa Calm     76 % 0.00 in /  0 mm
21:48 60.1 °F /  15.6 °C 52.5 °F /  11.4 °C 29.98 in /  1015.1 hPa Calm     76 % 0.00 in /  0 mm
21:53 59.9 °F /  15.5 °C 52.7 °F /  11.5 °C 29.98 in /  1015.1 hPa WSW 0.1 mph /  0.2 km/h   77 % 0.00 in /  0 mm
21:58 59.7 °F /  15.4 °C 52.5 °F /  11.4 °C 29.98 in /  1015.1 hPa Calm     77 % 0.00 in /  0 mm
22:03 59.6 °F /  15.3 °C 52.4 °F /  11.3 °C 29.98 in /  1015.1 hPa Calm   1.2 mph /  1.9 km/h 77 % 0.00 in /  0 mm
22:08 59.4 °F /  15.2 °C 52.5 °F /  11.4 °C 29.98 in /  1015.1 hPa Calm     78 % 0.00 in /  0 mm
22:13 59.2 °F /  15.1 °C 52.3 °F /  11.3 °C 29.98 in /  1015.1 hPa Calm   2.3 mph /  3.7 km/h 78 % 0.00 in /  0 mm
22:18 59.0 °F /  15 °C 52.5 °F /  11.4 °C 29.98 in /  1015.1 hPa Calm     79 % 0.00 in /  0 mm
22:23 58.8 °F /  14.9 °C 52.6 °F /  11.4 °C 29.98 in /  1015.1 hPa Calm     80 % 0.00 in /  0 mm
22:28 58.6 °F /  14.8 °C 52.4 °F /  11.3 °C 29.98 in /  1015.1 hPa Calm   2.3 mph /  3.7 km/h 80 % 0.00 in /  0 mm
22:33 58.4 °F /  14.7 °C 52.6 °F /  11.4 °C 29.98 in /  1015.1 hPa WSW 0.3 mph /  0.5 km/h 1.2 mph /  1.9 km/h 81 % 0.00 in /  0 mm
22:38 58.2 °F /  14.6 °C 52.1 °F /  11.2 °C 29.98 in /  1015.1 hPa WSW 0.2 mph /  0.3 km/h 1.2 mph /  1.9 km/h 80 % 0.00 in /  0 mm
22:43 58.0 °F /  14.4 °C 52.2 °F /  11.2 °C 29.99 in /  1015.5 hPa Calm     81 % 0.00 in /  0 mm
22:49 57.8 °F /  14.3 °C 52.0 °F /  11.1 °C 29.99 in /  1015.5 hPa WSW 1.3 mph /  2.1 km/h 3.5 mph /  5.6 km/h 81 % 0.00 in /  0 mm
22:53 57.7 °F /  14.3 °C 52.2 °F /  11.2 °C 29.99 in /  1015.5 hPa WSW 1.3 mph /  2.1 km/h 2.3 mph /  3.7 km/h 82 % 0.00 in /  0 mm
22:58 57.5 °F /  14.2 °C 51.7 °F /  10.9 °C 29.99 in /  1015.5 hPa WSW 1.6 mph /  2.6 km/h 2.3 mph /  3.7 km/h 81 % 0.00 in /  0 mm
23:03 57.3 °F /  14.1 °C 51.5 °F /  10.8 °C 29.98 in /  1015.1 hPa WSW 1.1 mph /  1.8 km/h 2.3 mph /  3.7 km/h 81 % 0.00 in /  0 mm
23:08 57.2 °F /  14 °C 51.8 °F /  11 °C 29.99 in /  1015.5 hPa Calm   1.2 mph /  1.9 km/h 82 % 0.00 in /  0 mm
23:13 57.1 °F /  13.9 °C 51.7 °F /  10.9 °C 29.99 in /  1015.5 hPa Calm   1.2 mph /  1.9 km/h 82 % 0.00 in /  0 mm
23:19 56.9 °F /  13.8 °C 51.5 °F /  10.8 °C 29.99 in /  1015.5 hPa Calm     82 % 0.00 in /  0 mm
23:24 56.7 °F /  13.7 °C 51.6 °F /  10.9 °C 29.99 in /  1015.5 hPa WSW 0.3 mph /  0.5 km/h 1.2 mph /  1.9 km/h 83 % 0.00 in /  0 mm
23:29 56.6 °F /  13.7 °C 51.5 °F /  10.8 °C 29.99 in /  1015.5 hPa Calm   1.2 mph /  1.9 km/h 83 % 0.00 in /  0 mm
23:34 56.5 °F /  13.6 °C 51.1 °F /  10.6 °C 29.99 in /  1015.5 hPa Calm     82 % 0.00 in /  0 mm
23:39 56.3 °F /  13.5 °C 51.2 °F /  10.7 °C 29.99 in /  1015.5 hPa Calm   1.2 mph /  1.9 km/h 83 % 0.00 in /  0 mm
23:44 56.2 °F /  13.4 °C 51.1 °F /  10.6 °C 29.99 in /  1015.5 hPa WSW 0.2 mph /  0.3 km/h 1.2 mph /  1.9 km/h 83 % 0.00 in /  0 mm
23:49 56.1 °F /  13.4 °C 51.0 °F /  10.6 °C 29.99 in /  1015.5 hPa Calm     83 % 0.00 in /  0 mm
23:54 56.0 °F /  13.3 °C 50.9 °F /  10.5 °C 29.99 in /  1015.5 hPa Calm     83 % 0.00 in /  0 mm
23:59 56.0 °F /  13.3 °C 51.2 °F /  10.7 °C 29.99 in /  1015.5 hPa Calm     84 % 0.00 in /  0 mm
Crab Meadow Weather
Compliments of Weather Underground - 3 mb

Script developed by  Jim McMurry - jmcmurry@mwt.net Adapted for the template by  Wim van der Kuil - Leuven-Template.eu

Astronomy: February 1865 is the only month recorded in history not to have a full moon.